createdAt,value
2022-10-28T00:01:10.664Z,83.76
2022-10-28T00:03:39.847Z,83.73
2022-10-28T00:06:09.703Z,83.52
2022-10-28T00:08:36.523Z,83.79
2022-10-28T00:11:18.915Z,84.06
2022-10-28T00:13:45.764Z,83.98
2022-10-28T00:16:20.829Z,83.86
2022-10-28T00:18:48.099Z,83.73
2022-10-28T00:21:17.519Z,84.04
2022-10-28T00:23:44.335Z,84.00
2022-10-28T00:26:17.808Z,83.89
2022-10-28T00:28:47.078Z,83.42
2022-10-28T00:31:15.783Z,84.15
2022-10-28T00:33:42.325Z,84.04
2022-10-28T00:36:17.404Z,84.29
2022-10-28T00:38:46.270Z,84.30
2022-10-28T00:41:15.839Z,84.35
2022-10-28T00:43:47.595Z,84.58
2022-10-28T00:46:47.545Z,84.21
2022-10-28T00:49:20.058Z,84.21
2022-10-28T00:51:51.981Z,84.38
2022-10-28T00:54:19.600Z,83.97
2022-10-28T00:56:51.546Z,83.71
2022-10-28T00:59:26.998Z,84.11
2022-10-28T01:01:54.386Z,83.77
2022-10-28T01:04:21.652Z,83.77
2022-10-28T01:06:49.138Z,83.98
2022-10-28T01:09:15.660Z,84.09
2022-10-28T01:12:06.998Z,84.43
2022-10-28T01:14:53.899Z,84.08
2022-10-28T01:17:46.363Z,84.29
2022-10-28T01:24:44.419Z,84.30
2022-10-28T01:39:10.033Z,84.57
2022-10-28T01:42:48.861Z,85.16
2022-10-28T01:45:49.369Z,84.28
2022-10-28T01:53:06.735Z,84.61
2022-10-28T01:56:15.940Z,84.65
2022-10-28T01:59:10.884Z,85.15
2022-10-28T02:05:47.745Z,84.73
2022-10-28T02:20:04.950Z,84.77
2022-10-28T02:26:15.942Z,84.72
2022-10-28T02:29:04.628Z,85.25
2022-10-28T02:31:41.183Z,84.84
2022-10-28T02:34:34.898Z,84.82
2022-10-28T02:37:11.548Z,84.88
2022-10-28T02:39:47.300Z,85.05
2022-10-28T02:42:48.343Z,84.84
2022-10-28T02:45:24.498Z,84.66
2022-10-28T02:48:08.141Z,84.97
2022-10-28T02:50:44.202Z,84.41
2022-10-28T02:53:19.732Z,84.86
2022-10-28T02:55:57.752Z,84.76
2022-10-28T03:01:21.195Z,85.33
2022-10-28T03:04:17.526Z,85.14
2022-10-28T03:07:10.609Z,84.57
2022-10-28T03:17:04.662Z,85.53
2022-10-28T03:19:31.079Z,85.29
2022-10-28T03:21:57.405Z,85.30
2022-10-28T03:24:23.765Z,85.62
2022-10-28T03:26:50.117Z,85.02
2022-10-28T03:29:16.492Z,85.02
2022-10-28T03:31:42.854Z,84.74
2022-10-28T03:34:09.224Z,84.86
2022-10-28T03:36:35.581Z,84.65
2022-10-28T03:39:02.169Z,84.71
2022-10-28T03:41:28.496Z,85.47
2022-10-28T03:43:54.945Z,85.34
2022-10-28T03:46:21.334Z,85.63
2022-10-28T03:48:47.677Z,85.27
2022-10-28T03:51:14.010Z,85.65
2022-10-28T03:53:40.394Z,84.89
2022-10-28T03:56:07.263Z,85.43
2022-10-28T03:58:37.297Z,85.61
2022-10-28T04:01:06.669Z,84.88
2022-10-28T04:03:33.120Z,85.61
2022-10-28T04:05:59.480Z,84.76
2022-10-28T04:08:25.822Z,84.86
2022-10-28T04:10:52.236Z,84.81
2022-10-28T04:13:18.588Z,85.46
2022-10-28T04:15:45.022Z,85.20
2022-10-28T04:18:12.126Z,85.73
2022-10-28T04:20:46.286Z,85.07
2022-10-28T04:23:30.025Z,85.72
2022-10-28T04:25:57.818Z,85.66
2022-10-28T04:28:25.969Z,85.25
2022-10-28T04:31:01.696Z,84.92
2022-10-28T04:39:04.197Z,84.97
2022-10-28T04:41:35.409Z,85.76
2022-10-28T04:44:03.890Z,85.38
2022-10-28T04:46:32.460Z,85.10
2022-10-28T04:49:04.005Z,84.84
2022-10-28T04:51:34.195Z,85.41
2022-10-28T04:54:02.077Z,85.35
2022-10-28T04:56:58.048Z,85.44
2022-10-28T04:59:26.119Z,84.88
2022-10-28T05:02:00.096Z,84.47
2022-10-28T05:08:58.833Z,85.29
2022-10-28T05:12:17.163Z,85.43
2022-10-28T05:18:57.211Z,84.89
2022-10-28T05:21:55.031Z,85.08
2022-10-28T05:24:22.482Z,85.15
2022-10-28T05:26:50.674Z,85.64
2022-10-28T05:29:20.353Z,85.45
2022-10-28T05:31:52.457Z,85.11
2022-10-28T05:34:24.996Z,84.95
2022-10-28T05:37:06.640Z,85.71
2022-10-28T05:39:36.038Z,84.64
2022-10-28T05:42:09.872Z,85.43
2022-10-28T05:45:03.982Z,84.91
2022-10-28T05:47:45.508Z,85.32
2022-10-28T05:50:27.980Z,84.65
2022-10-28T05:53:06.731Z,84.89
2022-10-28T05:55:37.212Z,85.60
2022-10-28T05:58:07.765Z,85.34
2022-10-28T06:00:35.697Z,85.36
2022-10-28T06:03:28.615Z,85.75
2022-10-28T06:06:05.370Z,85.54
2022-10-28T06:08:33.303Z,85.14
2022-10-28T06:11:05.328Z,85.04
2022-10-28T06:17:05.251Z,85.05
2022-10-28T06:19:56.397Z,85.19
2022-10-28T06:22:30.120Z,85.38
2022-10-28T06:25:00.433Z,85.15
2022-10-28T06:27:38.826Z,85.05
2022-10-28T06:30:13.334Z,85.26
2022-10-28T06:32:52.084Z,84.71
2022-10-28T06:39:00.810Z,84.66
2022-10-28T06:45:01.898Z,84.87
2022-10-28T06:48:06.310Z,85.07
2022-10-28T06:50:55.300Z,84.61
2022-10-28T06:53:22.146Z,85.01
2022-10-28T06:55:55.889Z,84.96
2022-10-28T06:58:23.206Z,85.23
2022-10-28T07:00:49.941Z,84.90
2022-10-28T07:03:16.986Z,85.08
2022-10-28T07:05:43.449Z,84.46
2022-10-28T07:08:09.902Z,85.11
2022-10-28T07:10:36.387Z,84.57
2022-10-28T07:13:03.342Z,84.62
2022-10-28T07:15:29.845Z,84.40
2022-10-28T07:17:58.158Z,84.39
2022-10-28T07:20:26.081Z,84.41
2022-10-28T07:23:00.399Z,84.22
2022-10-28T07:25:28.733Z,84.14
2022-10-28T07:27:58.532Z,83.81
2022-10-28T07:30:25.683Z,83.73
2022-10-28T07:32:52.544Z,83.84
2022-10-28T07:35:19.718Z,83.84
2022-10-28T07:37:46.582Z,83.69
2022-10-28T07:40:13.391Z,83.07
2022-10-28T07:42:39.849Z,83.18
2022-10-28T07:45:06.886Z,82.66
2022-10-28T07:47:33.251Z,83.09
2022-10-28T07:49:59.675Z,82.85
2022-10-28T07:56:16.405Z,82.82
2022-10-28T07:59:51.572Z,82.79
2022-10-28T08:08:53.296Z,82.48
2022-10-28T08:12:21.642Z,82.52
2022-10-28T08:14:59.099Z,82.71
2022-10-28T08:21:08.603Z,82.23
2022-10-28T08:24:02.212Z,81.75
2022-10-28T08:26:35.547Z,81.50
2022-10-28T08:35:54.048Z,81.52
2022-10-28T08:38:48.446Z,81.02
2022-10-28T08:45:52.985Z,80.95
2022-10-28T08:52:42.223Z,80.53
2022-10-28T08:55:36.922Z,80.94
2022-10-28T08:58:17.883Z,80.48
2022-10-28T09:01:00.483Z,80.52
2022-10-28T09:03:54.949Z,80.40
2022-10-28T09:06:25.597Z,80.68
2022-10-28T09:09:03.844Z,80.29
2022-10-28T09:14:58.361Z,79.72
2022-10-28T09:17:54.012Z,79.73
2022-10-28T09:21:09.061Z,79.84
2022-10-28T09:24:09.731Z,79.75
2022-10-28T09:26:45.875Z,79.69
2022-10-28T09:29:37.193Z,79.08
2022-10-28T09:39:07.328Z,79.69
2022-10-28T09:49:38.692Z,79.22
2022-10-28T09:52:08.111Z,79.46
2022-10-28T09:54:39.189Z,79.72
2022-10-28T09:57:05.909Z,79.11
2022-10-28T09:59:33.350Z,79.20
2022-10-28T10:01:59.889Z,78.64
2022-10-28T10:04:29.024Z,77.74
2022-10-28T10:07:00.521Z,77.03
2022-10-28T10:09:29.821Z,77.42
2022-10-28T10:12:02.206Z,76.87
2022-10-28T10:14:34.319Z,76.41
2022-10-28T10:17:24.916Z,76.99
2022-10-28T10:20:00.653Z,76.13
2022-10-28T10:22:34.146Z,74.93
2022-10-28T10:25:00.652Z,75.27
2022-10-28T10:27:30.323Z,73.68
2022-10-28T10:29:58.192Z,72.81
2022-10-28T10:32:31.608Z,72.56
2022-10-28T10:35:15.206Z,71.78
2022-10-28T10:37:44.117Z,72.32
2022-10-28T10:40:26.356Z,71.49
2022-10-28T10:43:13.187Z,71.72
2022-10-28T10:45:40.041Z,71.86
2022-10-28T10:48:16.158Z,72.25
2022-10-28T10:50:45.020Z,71.65
2022-10-28T10:53:40.534Z,70.94
2022-10-28T10:59:20.617Z,71.91
2022-10-28T11:05:23.010Z,71.73
2022-10-28T11:07:57.074Z,72.15
2022-10-28T11:10:43.658Z,70.33
2022-10-28T11:14:09.032Z,71.35
2022-10-28T11:17:06.392Z,70.27
2022-10-28T11:19:45.112Z,69.19
2022-10-28T11:22:40.203Z,69.95
2022-10-28T11:25:50.955Z,68.67
2022-10-28T11:33:24.742Z,69.81
2022-10-28T11:36:34.177Z,68.14
2022-10-28T11:39:55.497Z,69.17
2022-10-28T11:43:09.033Z,69.62
2022-10-28T11:46:10.687Z,69.14
2022-10-28T11:49:01.903Z,69.74
2022-10-28T11:51:39.238Z,69.19
2022-10-28T11:54:11.491Z,68.70
2022-10-28T11:56:59.397Z,68.24
2022-10-28T11:59:57.012Z,68.21
2022-10-28T12:02:49.328Z,68.32
2022-10-28T12:05:27.901Z,69.26
2022-10-28T12:08:21.477Z,68.22
2022-10-28T12:10:50.525Z,69.39
2022-10-28T12:13:32.027Z,67.73
2022-10-28T12:16:15.432Z,68.15
2022-10-28T12:19:12.617Z,68.46
2022-10-28T12:21:57.181Z,67.16
2022-10-28T12:24:25.025Z,67.99
2022-10-28T12:26:56.284Z,67.16
2022-10-28T12:29:30.063Z,66.85
2022-10-28T12:32:11.492Z,67.61
2022-10-28T12:34:44.996Z,66.02
2022-10-28T12:37:21.036Z,66.33
2022-10-28T12:40:29.145Z,65.69
2022-10-28T12:43:07.197Z,64.46
2022-10-28T12:53:27.604Z,63.22
2022-10-28T12:56:08.108Z,62.54
2022-10-28T12:58:42.990Z,62.04
2022-10-28T13:01:21.427Z,61.37
2022-10-28T13:03:51.991Z,61.09
2022-10-28T13:06:51.649Z,60.72
2022-10-28T13:09:43.400Z,60.62
2022-10-28T13:12:17.089Z,60.51
2022-10-28T13:15:03.798Z,60.28
2022-10-28T13:17:43.735Z,59.93
2022-10-28T13:20:32.632Z,60.37
2022-10-28T13:23:19.233Z,60.03
2022-10-28T13:26:43.433Z,60.13
2022-10-28T13:29:48.221Z,60.62
2022-10-28T13:32:53.778Z,59.62
2022-10-28T13:35:46.486Z,59.63
2022-10-28T13:39:07.887Z,59.76
2022-10-28T13:41:44.761Z,59.46
2022-10-28T13:44:20.383Z,59.47
2022-10-28T13:46:58.884Z,59.73
2022-10-28T13:49:32.137Z,59.40
2022-10-28T13:52:02.361Z,59.66
2022-10-28T13:54:43.753Z,60.66
2022-10-28T13:57:28.513Z,61.00
2022-10-28T14:00:23.365Z,61.54
2022-10-28T14:02:56.340Z,61.27
2022-10-28T14:05:45.992Z,61.83
2022-10-28T14:08:22.460Z,61.18
2022-10-28T14:11:05.364Z,62.01
2022-10-28T14:13:37.007Z,62.44
2022-10-28T14:16:34.250Z,62.05
2022-10-28T14:19:08.555Z,61.89
2022-10-28T14:21:46.952Z,61.64
2022-10-28T14:24:29.905Z,61.98
2022-10-28T14:27:18.057Z,62.52
2022-10-28T14:30:05.160Z,63.16
2022-10-28T14:32:31.580Z,62.65
2022-10-28T14:35:13.084Z,62.36
2022-10-28T14:38:12.512Z,62.40
2022-10-28T14:41:00.536Z,63.49
2022-10-28T14:44:10.131Z,62.50
2022-10-28T14:46:48.706Z,63.49
2022-10-28T14:49:25.592Z,63.13
2022-10-28T14:51:53.280Z,64.35
2022-10-28T14:54:36.606Z,63.47
2022-10-28T14:57:07.869Z,64.13
2022-10-28T14:59:40.328Z,63.70
2022-10-28T15:02:25.193Z,64.81
2022-10-28T15:05:04.485Z,64.24
2022-10-28T15:07:35.604Z,64.79
2022-10-28T15:10:25.985Z,65.70
2022-10-28T15:12:54.325Z,66.04
2022-10-28T15:15:23.453Z,65.18
2022-10-28T15:17:50.381Z,67.06
2022-10-28T15:20:25.474Z,66.74
2022-10-28T15:22:53.551Z,66.56
2022-10-28T15:25:22.090Z,66.80
2022-10-28T15:27:52.075Z,67.61
2022-10-28T15:30:24.873Z,67.06
2022-10-28T15:32:52.951Z,67.29
2022-10-28T15:35:29.626Z,67.83
2022-10-28T15:37:59.852Z,67.70
2022-10-28T15:40:35.155Z,68.24
2022-10-28T15:43:06.270Z,67.90
2022-10-28T15:45:41.328Z,67.91
2022-10-28T15:48:13.971Z,69.29
2022-10-28T15:50:41.495Z,68.25
2022-10-28T15:54:26.012Z,69.03
2022-10-28T15:57:00.098Z,68.37
2022-10-28T15:59:28.382Z,69.46
2022-10-28T16:01:58.071Z,68.96
2022-10-28T16:04:28.971Z,69.87
2022-10-28T16:07:10.874Z,69.41
2022-10-28T16:09:49.090Z,69.89
2022-10-28T16:13:54.611Z,70.70
2022-10-28T16:20:35.367Z,71.64
2022-10-28T16:24:14.362Z,71.69
2022-10-28T16:27:36.418Z,71.29
2022-10-28T16:30:09.100Z,71.67
2022-10-28T16:41:47.976Z,72.53
2022-10-28T16:44:19.341Z,72.66
2022-10-28T16:46:50.271Z,73.23
2022-10-28T16:49:19.158Z,73.29
2022-10-28T16:51:46.498Z,73.54
2022-10-28T16:54:18.584Z,73.84
2022-10-28T17:00:19.420Z,73.62
2022-10-28T17:03:21.345Z,73.41
2022-10-28T17:06:16.342Z,74.57
2022-10-28T17:12:00.531Z,75.08
2022-10-28T17:14:49.088Z,74.95
2022-10-28T17:17:37.744Z,74.63
2022-10-28T17:24:07.605Z,75.08
2022-10-28T17:26:59.361Z,75.20
2022-10-28T17:29:38.185Z,76.58
2022-10-28T17:32:16.316Z,76.80
2022-10-28T17:35:33.647Z,76.05
2022-10-28T17:38:00.444Z,76.97
2022-10-28T17:40:27.261Z,76.90
2022-10-28T17:42:59.382Z,77.21
2022-10-28T17:45:29.814Z,77.27
2022-10-28T17:48:00.686Z,77.11
2022-10-28T17:50:31.500Z,77.79
2022-10-28T17:52:58.096Z,77.89
2022-10-28T17:55:24.728Z,76.99
2022-10-28T17:57:51.086Z,77.64
2022-10-28T18:00:17.557Z,77.76
2022-10-28T18:02:44.026Z,78.45
2022-10-28T18:05:10.569Z,78.71
2022-10-28T18:07:37.040Z,78.61
2022-10-28T18:10:03.662Z,77.93
2022-10-28T18:12:30.024Z,79.51
2022-10-28T18:14:56.376Z,78.74
2022-10-28T18:17:22.780Z,79.48
2022-10-28T18:19:49.126Z,79.26
2022-10-28T18:22:15.639Z,79.04
2022-10-28T18:24:42.027Z,79.39
2022-10-28T18:27:08.583Z,79.62
2022-10-28T18:29:36.196Z,80.23
2022-10-28T18:32:04.533Z,79.41
2022-10-28T18:34:31.493Z,80.29
2022-10-28T18:36:57.983Z,79.42
2022-10-28T18:39:26.148Z,79.81
2022-10-28T18:41:52.623Z,80.35
2022-10-28T18:44:21.565Z,79.89
2022-10-28T18:46:48.061Z,80.60
2022-10-28T18:49:14.484Z,80.11
2022-10-28T18:54:33.512Z,80.59
2022-10-28T18:57:12.368Z,80.51
2022-10-28T19:00:05.112Z,80.61
2022-10-28T19:05:48.029Z,80.51
2022-10-28T19:08:35.937Z,81.20
2022-10-28T19:11:43.412Z,80.36
2022-10-28T19:14:31.499Z,81.46
2022-10-28T19:17:11.561Z,80.91
2022-10-28T19:19:39.327Z,81.26
2022-10-28T19:22:15.803Z,80.90
2022-10-28T19:24:49.647Z,81.89
2022-10-28T19:27:19.955Z,80.87
2022-10-28T19:30:27.996Z,81.51
2022-10-28T19:33:59.875Z,81.49
2022-10-28T19:37:14.355Z,81.77
2022-10-28T19:39:56.400Z,81.88
2022-10-28T19:42:40.352Z,81.73
2022-10-28T19:48:16.263Z,82.88
2022-10-28T19:50:52.381Z,82.89
2022-10-28T19:53:18.732Z,82.59
2022-10-28T19:55:45.070Z,83.08
2022-10-28T19:58:11.560Z,82.73
2022-10-28T20:00:37.994Z,82.99
2022-10-28T20:03:04.379Z,82.65
2022-10-28T20:05:30.799Z,82.78
2022-10-28T20:07:57.505Z,82.74
2022-10-28T20:10:23.934Z,83.19
2022-10-28T20:12:50.338Z,83.47
2022-10-28T20:15:16.702Z,83.79
2022-10-28T20:17:43.111Z,83.52
2022-10-28T20:20:10.210Z,83.58
2022-10-28T20:22:41.330Z,83.19
2022-10-28T20:25:09.131Z,83.56
2022-10-28T20:27:35.512Z,83.61
2022-10-28T20:30:01.859Z,83.91
2022-10-28T20:32:28.397Z,84.04
2022-10-28T20:34:54.851Z,84.08
2022-10-28T20:37:21.214Z,83.35
2022-10-28T20:39:48.036Z,84.49
2022-10-28T20:42:14.500Z,83.51
2022-10-28T20:44:40.882Z,84.41
2022-10-28T20:47:07.205Z,83.88
2022-10-28T20:49:33.600Z,83.72
2022-10-28T20:52:00.779Z,83.80
2022-10-28T20:54:27.148Z,84.12
2022-10-28T20:56:53.475Z,84.23
2022-10-28T20:59:19.825Z,84.89
2022-10-28T21:01:46.423Z,84.38
2022-10-28T21:04:12.992Z,84.81
2022-10-28T21:06:39.750Z,84.36
2022-10-28T21:09:06.933Z,84.19
2022-10-28T21:11:33.660Z,84.41
2022-10-28T21:14:01.585Z,84.66
2022-10-28T21:16:31.713Z,84.74
2022-10-28T21:19:02.696Z,84.84
2022-10-28T21:21:30.172Z,84.66
2022-10-28T21:23:56.891Z,85.12
2022-10-28T21:26:23.393Z,85.32
2022-10-28T21:28:51.840Z,85.05
2022-10-28T21:31:20.032Z,84.90
2022-10-28T21:33:47.058Z,84.59
2022-10-28T21:36:19.267Z,84.90
2022-10-28T21:38:46.441Z,85.02
2022-10-28T21:41:18.617Z,85.38
2022-10-28T21:43:47.852Z,84.86
2022-10-28T21:46:14.843Z,85.19
2022-10-28T21:48:41.361Z,85.22
2022-10-28T21:51:13.602Z,84.98
2022-10-28T21:53:42.620Z,85.22
2022-10-28T21:56:16.567Z,85.61
2022-10-28T21:58:43.372Z,84.98
2022-10-28T22:01:13.449Z,85.49
2022-10-28T22:03:40.699Z,85.10
2022-10-28T22:06:07.501Z,85.45
2022-10-28T22:08:34.661Z,85.29
2022-10-28T22:11:11.990Z,85.03
2022-10-28T22:13:38.514Z,85.18
2022-10-28T22:16:07.989Z,84.92
2022-10-28T22:18:36.121Z,84.91
2022-10-28T22:21:08.804Z,85.43
2022-10-28T22:23:35.449Z,84.98
2022-10-28T22:26:06.079Z,84.65
2022-10-28T22:28:32.748Z,84.36
2022-10-28T22:31:00.494Z,84.18
2022-10-28T22:33:27.166Z,84.23
2022-10-28T22:36:07.208Z,84.83
2022-10-28T22:38:33.992Z,84.29
2022-10-28T22:41:05.935Z,84.65
2022-10-28T22:43:32.766Z,84.62
2022-10-28T22:45:59.894Z,84.23
2022-10-28T22:48:26.880Z,83.72
2022-10-28T22:50:53.837Z,84.61
2022-10-28T22:53:20.322Z,84.20
2022-10-28T22:55:47.479Z,84.63
2022-10-28T22:58:15.243Z,84.59
2022-10-28T23:00:41.627Z,84.62
2022-10-28T23:03:08.186Z,84.45
2022-10-28T23:05:34.676Z,84.80
2022-10-28T23:08:01.087Z,84.71
2022-10-28T23:10:28.071Z,85.12
2022-10-28T23:12:58.684Z,84.75
2022-10-28T23:15:25.673Z,84.91
2022-10-28T23:17:52.692Z,84.69
2022-10-28T23:20:21.086Z,85.15
2022-10-28T23:22:47.696Z,84.78
2022-10-28T23:25:14.831Z,85.25
2022-10-28T23:27:44.645Z,85.60
2022-10-28T23:30:13.135Z,84.78
2022-10-28T23:32:40.258Z,85.71
2022-10-28T23:35:07.231Z,85.43
2022-10-28T23:37:33.677Z,85.82
2022-10-28T23:40:00.103Z,85.45
2022-10-28T23:42:26.522Z,85.77
2022-10-28T23:44:52.908Z,85.59
2022-10-28T23:47:19.379Z,85.60
2022-10-28T23:49:45.833Z,86.07
2022-10-28T23:52:12.320Z,85.58
2022-10-28T23:54:38.805Z,85.72
2022-10-28T23:57:05.278Z,86.45
2022-10-28T23:59:31.735Z,85.74
